Brasinho — CSXI9 — position and weather

sailwx.info

Track history (hours):
 
Tides and Currents Weather Stations Pressure Air Temp Water Temp Dewpoint Dewpoint Depression Visibility Wind Speed Wind Dir Waves Ship Positions

Brasinho

Last reported at 2017-Aug-29 11:23 UTC. Time now 2017-Oct-17 13:28 UTC.
Position N 36°58' W 008°08'.
Warning: this ship's position is 49 days out of date.

Length 57 m; draft 1.8 m.

Type: Dredging. MMSI: 263670240.

Date/timePositionNaut miles runAvg speedWind from/ knotsBaromVisibWave heightAir tempDewpointWater temp
2017-Aug-29 11:23N 36°58' W 008°08'3 8.0
2017-Aug-29 11:00N 36°58' W 008°12'4 8.0
2017-Aug-29 10:31N 36°58' W 008°17'4 7.9
2017-Aug-29 10:00N 36°58' W 008°22'4 7.8
2017-Aug-29 09:29N 36°58' W 008°27'4 7.7
2017-Aug-29 09:01N 36°58' W 008°32'7 7.8
2017-Aug-29 08:09N 36°59' W 008°40'1 7.8
2017-Aug-29 08:00N 36°59' W 008°42'4 7.8
2017-Aug-29 07:31N 36°59' W 008°46'4 7.7
2017-Aug-29 07:01N 36°59' W 008°51'47 7.0
2017-Aug-29 00:17N 37°44' W 009°08'2 7.5
2017-Aug-29 00:00N 37°46' W 009°09'4 7.6
2017-Aug-28 23:30N 37°50' W 009°10'4 7.5
2017-Aug-28 23:01N 37°53' W 009°10'4 7.3
2017-Aug-28 22:31N 37°57' W 009°10'4 7.7
2017-Aug-28 22:01N 38°01' W 009°12'4 7.6
2017-Aug-28 21:31N 38°04' W 009°13'5 7.3
2017-Aug-28 20:50N 38°09' W 009°14'2 7.3
2017-Aug-28 20:30N 38°12' W 009°14'4 7.6
2017-Aug-28 20:00N 38°15' W 009°14'4 7.7
2017-Aug-28 19:30N 38°19' W 009°15'5 7.8
2017-Aug-28 18:51N 38°24' W 009°16'3 7.9
2017-Aug-28 18:30N 38°27' W 009°16'4 8.0
2017-Aug-28 17:58N 38°31' W 009°17'4 7.8
2017-Aug-28 17:30N 38°35' W 009°18'4 7.6
2017-Aug-28 17:00N 38°39' W 009°19'3 5.7
2017-Aug-28 16:30N 38°41' W 009°17'2 4.9
2017-Aug-28 16:00N 38°41' W 009°14'0 0.0
2017-Aug-28 15:31N 38°41' W 009°14'0 0.0
2017-Aug-28 15:00N 38°41' W 009°14'0 0.0
2017-Aug-28 14:30N 38°41' W 009°14'0 0.0
2017-Aug-28 14:00N 38°41' W 009°14'0 0.0
2017-Aug-28 13:30N 38°41' W 009°14'0 0.0
2017-Aug-28 13:00N 38°41' W 009°14'0 0.0
2017-Aug-28 12:30N 38°41' W 009°14'0 0.0
2017-Aug-28 11:59N 38°41' W 009°14'0 0.0
2017-Aug-28 11:30N 38°41' W 009°14'0 0.0
2017-Aug-28 11:00N 38°41' W 009°14'0 0.0
2017-Aug-28 10:30N 38°41' W 009°14'0 0.0
2017-Aug-28 10:00N 38°41' W 009°14'0 0.0
2017-Aug-28 09:31N 38°41' W 009°14'2 4.7
2017-Aug-28 08:59N 38°41' W 009°11'1 1.3
2017-Aug-28 07:52N 38°41' W 009°09'0 0.1
2017-Aug-28 07:15N 38°41' W 009°09'1 5.4
2017-Aug-28 07:00N 38°41' W 009°10'  
2017-Aug-25 11:38N 38°41' W 009°14'0 0.0
2017-Aug-25 11:30N 38°41' W 009°14'0 0.0
2017-Aug-25 10:43N 38°41' W 009°14'0 0.0
2017-Aug-25 10:30N 38°41' W 009°14'0 0.0
2017-Aug-25 10:00N 38°41' W 009°14'0 0.0
2017-Aug-25 09:30N 38°41' W 009°14'0 0.0
2017-Aug-25 09:00N 38°41' W 009°14'0 0.0
2017-Aug-25 08:30N 38°41' W 009°14'0 0.0
2017-Aug-25 08:00N 38°41' W 009°14'0 0.0
2017-Aug-25 07:30N 38°41' W 009°14'0 0.0
2017-Aug-23 07:54N 38°41' W 009°14'0 0.0
2017-Aug-23 07:31N 38°41' W 009°14'0 0.0
2017-Aug-23 07:01N 38°41' W 009°14'0 0.0
2017-Aug-23 06:30N 38°41' W 009°14'0 0.0
2017-Aug-23 06:01N 38°41' W 009°14'0 0.0
2017-Aug-23 05:30N 38°41' W 009°14'0 0.0
2017-Aug-23 05:00N 38°41' W 009°14'0 0.0
2017-Aug-23 04:30N 38°41' W 009°14'0 0.0
2017-Aug-23 04:00N 38°41' W 009°14'0 0.0
2017-Aug-23 03:31N 38°41' W 009°14'0 0.0
2017-Aug-23 03:01N 38°41' W 009°14'0 0.0
2017-Aug-23 02:30N 38°41' W 009°14'0 0.0
2017-Aug-23 02:01N 38°41' W 009°14'0 0.0
2017-Aug-23 01:31N 38°41' W 009°14'0 0.0
2017-Aug-23 01:00N 38°41' W 009°14'0 0.0
2017-Aug-23 00:30N 38°41' W 009°14'0 0.0
2017-Aug-23 00:00N 38°41' W 009°14'0 0.0
2017-Aug-22 23:31N 38°41' W 009°14'0 0.0
2017-Aug-22 23:01N 38°41' W 009°14'0 0.0
2017-Aug-22 22:31N 38°41' W 009°14'0 0.0
2017-Aug-22 22:00N 38°41' W 009°14'0 0.0
2017-Aug-22 21:30N 38°41' W 009°14'0 0.0
2017-Aug-22 21:01N 38°41' W 009°14'0 0.0
2017-Aug-22 20:31N 38°41' W 009°14'0 0.0
2017-Aug-22 20:01N 38°41' W 009°14'0 0.0
2017-Aug-22 19:31N 38°41' W 009°14'0 0.0
2017-Aug-22 19:01N 38°41' W 009°14'0 0.0
2017-Aug-22 18:31N 38°41' W 009°14'0 0.0
2017-Aug-22 17:59N 38°41' W 009°14'0 0.0
2017-Aug-22 17:30N 38°41' W 009°14'0 0.0
2017-Aug-22 17:00N 38°41' W 009°14'0 0.0
2017-Aug-22 16:30N 38°41' W 009°14'0 0.0
2017-Aug-22 16:01N 38°41' W 009°14'0 0.0
2017-Aug-22 15:30N 38°41' W 009°14'0 0.0
2017-Aug-22 15:00N 38°41' W 009°14'0 0.0
2017-Aug-22 14:29N 38°41' W 009°14'  
Track history (hours):
 
Tides and Currents Weather Stations Pressure Air Temp Water Temp Dewpoint Dewpoint Depression Visibility Wind Speed Wind Dir Waves Ship Positions

Brasinho

Last reported at 2017-Aug-29 11:23 UTC. Time now 2017-Oct-17 13:28 UTC.
Position N 36°58' W 008°08'.
Warning: this ship's position is 49 days out of date.

Length 57 m; draft 1.8 m.

Type: Dredging. MMSI: 263670240.

Date/timePositionNaut miles runAvg speedWind from/ knotsBaromVisibWave heightAir tempDewpointWater temp
2017-Aug-29 11:23N 36°58' W 008°08'3 8.0
2017-Aug-29 11:00N 36°58' W 008°12'4 8.0
2017-Aug-29 10:31N 36°58' W 008°17'4 7.9
2017-Aug-29 10:00N 36°58' W 008°22'4 7.8
2017-Aug-29 09:29N 36°58' W 008°27'4 7.7
2017-Aug-29 09:01N 36°58' W 008°32'7 7.8
2017-Aug-29 08:09N 36°59' W 008°40'1 7.8
2017-Aug-29 08:00N 36°59' W 008°42'4 7.8
2017-Aug-29 07:31N 36°59' W 008°46'4 7.7
2017-Aug-29 07:01N 36°59' W 008°51'47 7.0
2017-Aug-29 00:17N 37°44' W 009°08'2 7.5
2017-Aug-29 00:00N 37°46' W 009°09'4 7.6
2017-Aug-28 23:30N 37°50' W 009°10'4 7.5
2017-Aug-28 23:01N 37°53' W 009°10'4 7.3
2017-Aug-28 22:31N 37°57' W 009°10'4 7.7
2017-Aug-28 22:01N 38°01' W 009°12'4 7.6
2017-Aug-28 21:31N 38°04' W 009°13'5 7.3
2017-Aug-28 20:50N 38°09' W 009°14'2 7.3
2017-Aug-28 20:30N 38°12' W 009°14'4 7.6
2017-Aug-28 20:00N 38°15' W 009°14'4 7.7
2017-Aug-28 19:30N 38°19' W 009°15'5 7.8
2017-Aug-28 18:51N 38°24' W 009°16'3 7.9
2017-Aug-28 18:30N 38°27' W 009°16'4 8.0
2017-Aug-28 17:58N 38°31' W 009°17'4 7.8
2017-Aug-28 17:30N 38°35' W 009°18'4 7.6
2017-Aug-28 17:00N 38°39' W 009°19'3 5.7
2017-Aug-28 16:30N 38°41' W 009°17'2 4.9
2017-Aug-28 16:00N 38°41' W 009°14'0 0.0
2017-Aug-28 15:31N 38°41' W 009°14'0 0.0
2017-Aug-28 15:00N 38°41' W 009°14'0 0.0
2017-Aug-28 14:30N 38°41' W 009°14'0 0.0
2017-Aug-28 14:00N 38°41' W 009°14'0 0.0
2017-Aug-28 13:30N 38°41' W 009°14'0 0.0
2017-Aug-28 13:00N 38°41' W 009°14'0 0.0
2017-Aug-28 12:30N 38°41' W 009°14'0 0.0
2017-Aug-28 11:59N 38°41' W 009°14'0 0.0
2017-Aug-28 11:30N 38°41' W 009°14'0 0.0
2017-Aug-28 11:00N 38°41' W 009°14'0 0.0
2017-Aug-28 10:30N 38°41' W 009°14'0 0.0
2017-Aug-28 10:00N 38°41' W 009°14'0 0.0
2017-Aug-28 09:31N 38°41' W 009°14'2 4.7
2017-Aug-28 08:59N 38°41' W 009°11'1 1.3
2017-Aug-28 07:52N 38°41' W 009°09'0 0.1
2017-Aug-28 07:15N 38°41' W 009°09'1 5.4
2017-Aug-28 07:00N 38°41' W 009°10'  
2017-Aug-25 11:38N 38°41' W 009°14'0 0.0
2017-Aug-25 11:30N 38°41' W 009°14'0 0.0
2017-Aug-25 10:43N 38°41' W 009°14'0 0.0
2017-Aug-25 10:30N 38°41' W 009°14'0 0.0
2017-Aug-25 10:00N 38°41' W 009°14'0 0.0
2017-Aug-25 09:30N 38°41' W 009°14'0 0.0
2017-Aug-25 09:00N 38°41' W 009°14'0 0.0
2017-Aug-25 08:30N 38°41' W 009°14'0 0.0
2017-Aug-25 08:00N 38°41' W 009°14'0 0.0
2017-Aug-25 07:30N 38°41' W 009°14'0 0.0
2017-Aug-23 07:54N 38°41' W 009°14'0 0.0
2017-Aug-23 07:31N 38°41' W 009°14'0 0.0
2017-Aug-23 07:01N 38°41' W 009°14'0 0.0
2017-Aug-23 06:30N 38°41' W 009°14'0 0.0
2017-Aug-23 06:01N 38°41' W 009°14'0 0.0
2017-Aug-23 05:30N 38°41' W 009°14'0 0.0
2017-Aug-23 05:00N 38°41' W 009°14'0 0.0
2017-Aug-23 04:30N 38°41' W 009°14'0 0.0
2017-Aug-23 04:00N 38°41' W 009°14'0 0.0
2017-Aug-23 03:31N 38°41' W 009°14'0 0.0
2017-Aug-23 03:01N 38°41' W 009°14'0 0.0
2017-Aug-23 02:30N 38°41' W 009°14'0 0.0
2017-Aug-23 02:01N 38°41' W 009°14'0 0.0
2017-Aug-23 01:31N 38°41' W 009°14'0 0.0
2017-Aug-23 01:00N 38°41' W 009°14'0 0.0
2017-Aug-23 00:30N 38°41' W 009°14'0 0.0
2017-Aug-23 00:00N 38°41' W 009°14'0 0.0
2017-Aug-22 23:31N 38°41' W 009°14'0 0.0
2017-Aug-22 23:01N 38°41' W 009°14'0 0.0
2017-Aug-22 22:31N 38°41' W 009°14'0 0.0
2017-Aug-22 22:00N 38°41' W 009°14'0 0.0
2017-Aug-22 21:30N 38°41' W 009°14'0 0.0
2017-Aug-22 21:01N 38°41' W 009°14'0 0.0
2017-Aug-22 20:31N 38°41' W 009°14'0 0.0
2017-Aug-22 20:01N 38°41' W 009°14'0 0.0
2017-Aug-22 19:31N 38°41' W 009°14'0 0.0
2017-Aug-22 19:01N 38°41' W 009°14'0 0.0
2017-Aug-22 18:31N 38°41' W 009°14'0 0.0
2017-Aug-22 17:59N 38°41' W 009°14'0 0.0
2017-Aug-22 17:30N 38°41' W 009°14'0 0.0
2017-Aug-22 17:00N 38°41' W 009°14'0 0.0
2017-Aug-22 16:30N 38°41' W 009°14'0 0.0
2017-Aug-22 16:01N 38°41' W 009°14'0 0.0
2017-Aug-22 15:30N 38°41' W 009°14'0 0.0
2017-Aug-22 15:00N 38°41' W 009°14'0 0.0
2017-Aug-22 14:29N 38°41' W 009°14'  

Dump ship's entire track history